Time;durP1;ratioP1;P1;durP2;ratioP2;P2;SDS_P1;SDS_P2;PMS_P1;PMS_P2;Temp;Humidity;BMP_temperature;BMP_pressure;BME280_temperature;BME280_humidity;BME280_pressure;Samples;Min_cycle;Max_cycle;Signal;HPM_P1;HPM_P2
2022/07/19 00:01:44;;;;;;;7.68;3.30;;;;;;;19.76;68.70;101726.69;5044760;28;20464;-69
2022/07/19 00:04:09;;;;;;;7.38;3.30;;;;;;;19.71;68.72;101720.75;5050032;28;20068;-66
2022/07/19 00:06:34;;;;;;;4.78;3.53;;;;;;;19.68;68.79;101718.28;5048853;28;20024;-67
2022/07/19 00:09:00;;;;;;;6.65;3.58;;;;;;;19.63;69.16;101718.72;5048646;28;20047;-67
2022/07/19 00:11:26;;;;;;;4.72;3.70;;;;;;;19.60;69.95;101710.75;5044245;28;20095;-66
2022/07/19 00:13:51;;;;;;;4.57;3.58;;;;;;;19.53;69.33;101712.31;5031118;28;20470;-66
2022/07/19 00:16:17;;;;;;;6.57;3.40;;;;;;;19.50;69.45;101707.13;5029875;28;20108;-68
2022/07/19 00:18:42;;;;;;;7.35;3.60;;;;;;;19.45;68.87;101703.94;5029526;28;20037;-66
2022/07/19 00:21:08;;;;;;;7.10;3.50;;;;;;;19.43;69.36;101705.97;5044365;28;20042;-68
2022/07/19 00:23:33;;;;;;;8.52;3.40;;;;;;;19.43;68.34;101704.06;5030602;28;20457;-66
2022/07/19 00:25:59;;;;;;;8.45;3.40;;;;;;;19.40;69.16;101706.25;5049742;28;20060;-67
2022/07/19 00:28:24;;;;;;;6.28;3.83;;;;;;;19.35;69.55;101707.59;5039702;28;20121;-67
2022/07/19 00:30:49;;;;;;;6.13;4.05;;;;;;;19.33;69.62;101703.22;5048362;28;20033;-67
2022/07/19 00:33:15;;;;;;;8.73;4.47;;;;;;;19.27;70.08;101699.16;5031682;28;20464;-67
2022/07/19 00:35:40;;;;;;;7.53;4.65;;;;;;;19.25;69.82;101697.56;5046988;28;20508;-67
2022/07/19 00:38:08;;;;;;;10.10;4.30;;;;;;;19.19;70.13;101696.25;5052680;28;20033;-68
2022/07/19 00:40:34;;;;;;;7.38;4.35;;;;;;;19.18;70.26;101699.19;5044059;28;20116;-67
2022/07/19 00:42:59;;;;;;;9.30;4.70;;;;;;;19.13;70.07;101691.34;5030931;28;20400;-68
2022/07/19 00:45:26;;;;;;;7.05;4.28;;;;;;;19.12;70.57;101695.13;5027864;28;20041;-66
2022/07/19 00:47:51;;;;;;;5.43;4.07;;;;;;;19.05;70.97;101685.66;5029679;28;20029;-67
2022/07/19 00:50:17;;;;;;;7.80;3.88;;;;;;;19.01;70.89;101689.75;5029829;28;20041;-66
2022/07/19 00:52:46;;;;;;;7.45;3.78;;;;;;;18.99;71.15;101689.88;5029391;28;20048;-67
2022/07/19 00:55:11;;;;;;;5.63;3.95;;;;;;;18.96;71.16;101692.94;5028887;28;20060;-66
2022/07/19 00:57:38;;;;;;;10.45;3.92;;;;;;;18.95;70.97;101688.44;5041754;28;20057;-68
2022/07/19 01:00:05;;;;;;;6.38;3.65;;;;;;;18.90;70.58;101688.00;5029594;28;20045;-66
2022/07/19 01:02:31;;;;;;;7.35;3.97;;;;;;;18.90;71.53;101692.66;5028068;28;20034;-67
2022/07/19 01:04:57;;;;;;;4.22;3.45;;;;;;;18.85;71.04;101688.44;5051835;28;20124;-68
2022/07/19 01:07:22;;;;;;;7.55;4.07;;;;;;;18.85;70.22;101684.81;5047433;28;20079;-67
2022/07/19 01:09:48;;;;;;;7.35;4.40;;;;;;;18.85;70.17;101688.44;5038272;28;20108;-71
2022/07/19 01:12:14;;;;;;;8.65;4.55;;;;;;;18.80;70.47;101693.50;5031016;28;20223;-68
2022/07/19 01:14:40;;;;;;;6.93;4.40;;;;;;;18.79;69.76;101694.53;5043586;28;20041;-68
2022/07/19 01:17:05;;;;;;;7.07;4.30;;;;;;;18.77;69.97;101691.03;5028194;28;20033;-67
2022/07/19 01:19:31;;;;;;;8.32;5.00;;;;;;;18.73;70.20;101683.19;5035153;28;20045;-66
2022/07/19 01:21:56;;;;;;;11.63;5.20;;;;;;;18.70;70.55;101681.63;5028246;28;20037;-67
2022/07/19 01:24:22;;;;;;;9.23;5.18;;;;;;;18.66;71.32;101685.63;5026998;28;20577;-66
2022/07/19 01:26:47;;;;;;;11.45;5.53;;;;;;;18.61;71.34;101687.94;5031731;28;20040;-71
2022/07/19 01:29:17;;;;;;;6.45;4.82;;;;;;;18.55;70.70;101697.63;5042701;28;20047;-67
2022/07/19 01:31:42;;;;;;;10.68;5.30;;;;;;;18.50;71.78;101690.81;5047674;28;20075;-66
2022/07/19 01:34:08;;;;;;;6.53;4.82;;;;;;;18.49;72.05;101694.59;5047167;28;20464;-66
2022/07/19 01:36:34;;;;;;;6.50;5.18;;;;;;;18.43;72.34;101692.41;5046385;28;20052;-68
2022/07/19 01:38:59;;;;;;;5.88;4.88;;;;;;;18.39;72.59;101696.47;5049004;28;20060;-68
2022/07/19 01:41:25;;;;;;;8.52;5.20;;;;;;;18.36;72.70;101692.09;5045871;28;20037;-68
2022/07/19 01:43:51;;;;;;;9.75;5.30;;;;;;;18.31;72.04;101695.25;5030429;28;20702;-67
2022/07/19 01:46:16;;;;;;;6.93;5.25;;;;;;;18.28;72.67;101692.81;5043475;28;20033;-68
2022/07/19 01:48:42;;;;;;;12.82;8.40;;;;;;;18.24;70.83;101691.34;5028329;28;20028;-67
2022/07/19 01:51:07;;;;;;;15.13;7.05;;;;;;;18.17;71.38;101690.16;5048202;28;20091;-66
2022/07/19 01:53:33;;;;;;;7.97;5.80;;;;;;;18.16;71.07;101680.16;5048465;28;20044;-67
2022/07/19 01:55:58;;;;;;;8.77;6.22;;;;;;;18.12;72.29;101683.31;5035504;28;20076;-67
2022/07/19 01:58:23;;;;;;;9.00;6.50;;;;;;;18.08;71.40;101685.47;5031020;28;20041;-67
2022/07/19 02:00:49;;;;;;;10.25;6.35;;;;;;;18.01;71.42;101696.19;5043591;28;20040;-68
2022/07/19 02:03:14;;;;;;;9.88;6.70;;;;;;;17.99;71.37;101695.44;5029382;28;20036;-67
2022/07/19 02:05:40;;;;;;;12.00;6.40;;;;;;;17.97;71.36;101689.22;5046512;28;20444;-66
2022/07/19 02:08:05;;;;;;;10.63;6.78;;;;;;;17.96;71.97;101695.72;5047721;28;20479;-68
2022/07/19 02:10:31;;;;;;;11.60;6.20;;;;;;;17.93;71.81;101689.63;5048163;28;20087;-67
2022/07/19 02:12:56;;;;;;;12.07;7.05;;;;;;;17.88;71.64;101680.91;5035414;28;20057;-67
2022/07/19 02:15:22;;;;;;;10.80;6.95;;;;;;;17.84;71.62;101683.06;5027630;28;20132;-68
2022/07/19 02:17:47;;;;;;;12.50;6.00;;;;;;;17.78;71.75;101680.88;5026427;28;20033;-69
2022/07/19 02:20:13;;;;;;;13.65;7.03;;;;;;;17.78;71.62;101681.75;5042920;28;20037;-66
2022/07/19 02:22:38;;;;;;;18.17;7.70;;;;;;;17.76;71.58;101677.38;5028032;28;20736;-68
2022/07/19 02:25:04;;;;;;;14.85;7.22;;;;;;;17.75;71.79;101684.75;5027910;28;20076;-67
2022/07/19 02:27:30;;;;;;;10.35;6.53;;;;;;;17.68;72.07;101669.78;5038880;28;20659;-66
2022/07/19 02:29:55;;;;;;;9.52;7.38;;;;;;;17.67;72.49;101681.78;5027368;28;20633;-67
2022/07/19 02:32:21;;;;;;;10.77;7.32;;;;;;;17.60;72.62;101677.84;5027738;28;20036;-67
2022/07/19 02:34:46;;;;;;;12.77;8.60;;;;;;;17.55;73.00;101666.38;5047058;28;20033;-68
2022/07/19 02:37:11;;;;;;;10.40;6.90;;;;;;;17.54;73.00;101671.00;5037092;28;20069;-67
2022/07/19 02:39:37;;;;;;;9.77;7.68;;;;;;;17.55;73.17;101669.13;5027992;28;20550;-67
2022/07/19 02:42:02;;;;;;;9.38;6.75;;;;;;;17.53;72.80;101674.78;5030763;28;20120;-67
2022/07/19 02:44:28;;;;;;;10.23;6.20;;;;;;;17.51;72.20;101663.00;5027338;28;20041;-67
2022/07/19 02:46:53;;;;;;;13.40;7.40;;;;;;;17.49;72.84;101666.94;5032072;28;20029;-66
2022/07/19 02:49:20;;;;;;;10.30;7.65;;;;;;;17.43;72.65;101665.56;5030172;28;20033;-71
2022/07/19 02:51:45;;;;;;;9.45;7.30;;;;;;;17.42;72.55;101669.31;5032012;28;20689;-67
2022/07/19 02:54:11;;;;;;;8.98;7.65;;;;;;;17.38;72.88;101667.00;5047394;28;20045;-68
2022/07/19 02:56:36;;;;;;;8.13;7.07;;;;;;;17.36;72.57;101658.88;5052274;28;20838;-68
2022/07/19 02:59:03;;;;;;;9.45;6.80;;;;;;;17.35;72.74;101668.16;5032477;28;20029;-69
2022/07/19 03:01:29;;;;;;;8.43;7.30;;;;;;;17.30;73.80;101670.44;5031666;28;20467;-68
2022/07/19 03:03:56;;;;;;;13.93;7.20;;;;;;;17.25;74.13;101661.69;5031325;28;20037;-67
2022/07/19 03:06:21;;;;;;;10.25;7.47;;;;;;;17.20;73.58;101651.09;5030965;28;20041;-69
2022/07/19 03:08:47;;;;;;;13.13;6.68;;;;;;;17.19;73.06;101652.09;5049566;28;20032;-67
2022/07/19 03:11:13;;;;;;;9.73;6.75;;;;;;;17.14;75.04;101645.25;5050155;28;20684;-67
2022/07/19 03:13:38;;;;;;;7.95;6.35;;;;;;;17.12;74.90;101645.41;5022413;28;20041;-67
2022/07/19 03:16:04;;;;;;;9.30;6.82;;;;;;;17.12;74.69;101653.66;5030910;28;20025;-67
2022/07/19 03:18:29;;;;;;;8.93;6.88;;;;;;;17.11;74.67;101649.13;5029786;28;20037;-68
2022/07/19 03:20:55;;;;;;;7.47;6.35;;;;;;;17.07;74.76;101644.94;5044601;28;20048;-68
2022/07/19 03:23:20;;;;;;;11.55;6.65;;;;;;;17.06;74.57;101641.28;5051388;28;20036;-67
2022/07/19 03:25:46;;;;;;;8.90;6.38;;;;;;;17.04;74.80;101639.69;5039780;28;20060;-68
2022/07/19 03:28:11;;;;;;;8.07;6.53;;;;;;;17.00;75.08;101639.09;5036150;28;20048;-67
2022/07/19 03:30:36;;;;;;;9.10;6.88;;;;;;;16.98;74.88;101634.75;5030913;28;20558;-67
2022/07/19 03:33:02;;;;;;;10.30;7.50;;;;;;;16.98;74.84;101638.38;5031305;28;20018;-68
2022/07/19 03:35:27;;;;;;;11.52;6.78;;;;;;;16.93;74.91;101632.41;5030461;28;20042;-67
2022/07/19 03:37:53;;;;;;;8.68;6.90;;;;;;;16.92;75.01;101641.63;5030853;28;20029;-67
2022/07/19 03:40:19;;;;;;;10.57;6.78;;;;;;;16.92;74.97;101640.75;5034474;28;20033;-68
2022/07/19 03:42:44;;;;;;;8.88;6.32;;;;;;;16.89;74.82;101636.41;5043338;28;20029;-69
2022/07/19 03:45:10;;;;;;;11.00;6.45;;;;;;;16.88;74.13;101637.41;5046120;28;20029;-68
2022/07/19 03:47:35;;;;;;;9.27;6.28;;;;;;;16.88;74.01;101637.41;5049877;28;20064;-67
2022/07/19 03:50:01;;;;;;;10.40;6.20;;;;;;;16.88;73.88;101631.94;5048441;28;20048;-66
2022/07/19 03:52:26;;;;;;;8.60;6.22;;;;;;;16.88;73.93;101633.78;5030694;28;20476;-67
2022/07/19 03:54:52;;;;;;;9.18;6.57;;;;;;;16.88;74.30;101640.16;5029979;28;20025;-67
2022/07/19 03:57:18;;;;;;;11.13;7.45;;;;;;;16.86;75.57;101641.28;5030004;28;20046;-70
2022/07/19 03:59:43;;;;;;;11.15;6.95;;;;;;;16.82;74.53;101641.53;5045806;28;20044;-66
2022/07/19 04:02:08;;;;;;;10.27;6.97;;;;;;;16.82;75.28;101643.44;5050272;28;20033;-66
2022/07/19 04:04:34;;;;;;;9.82;7.32;;;;;;;16.82;75.30;101644.28;5050344;28;20040;-66
2022/07/19 04:06:59;;;;;;;8.70;7.10;;;;;;;16.84;74.84;101641.44;5047719;28;20083;-67
2022/07/19 04:09:24;;;;;;;18.20;7.53;;;;;;;16.86;74.48;101649.53;5048732;28;20105;-67
2022/07/19 04:11:50;;;;;;;10.48;7.63;;;;;;;16.85;74.69;101645.06;5048455;28;20039;-67
2022/07/19 04:14:15;;;;;;;12.50;8.48;;;;;;;16.85;75.87;101647.81;5032913;28;20040;-67
2022/07/19 04:16:41;;;;;;;13.07;8.48;;;;;;;16.84;76.22;101646.94;5029849;28;20038;-67
2022/07/19 04:19:06;;;;;;;14.20;8.30;;;;;;;16.85;76.66;101640.41;5029891;28;20037;-66
2022/07/19 04:21:31;;;;;;;14.23;7.80;;;;;;;16.84;76.62;101644.19;5029593;28;20091;-67
2022/07/19 04:23:57;;;;;;;14.00;7.90;;;;;;;16.86;76.56;101642.16;5030170;28;20056;-66
2022/07/19 04:26:22;;;;;;;15.65;9.30;;;;;;;16.81;77.89;101648.06;5029608;28;20377;-67
2022/07/19 04:28:47;;;;;;;19.60;10.68;;;;;;;16.82;78.15;101646.16;5038009;28;20045;-70
2022/07/19 04:31:14;;;;;;;11.93;8.85;;;;;;;16.89;76.96;101641.91;5042173;28;20099;-66
2022/07/19 04:33:40;;;;;;;11.27;8.30;;;;;;;16.93;77.06;101640.63;5025528;28;20033;-67
2022/07/19 04:36:05;;;;;;;15.02;8.88;;;;;;;16.99;76.69;101640.09;5044626;28;20094;-69
2022/07/19 04:38:31;;;;;;;13.35;9.00;;;;;;;17.05;76.50;101635.94;5048976;28;20037;-67
2022/07/19 04:40:56;;;;;;;12.68;8.18;;;;;;;17.07;76.61;101643.06;5047043;28;20064;-68
2022/07/19 04:43:22;;;;;;;12.77;8.60;;;;;;;17.14;76.61;101648.00;5043677;28;20033;-66
2022/07/19 04:45:47;;;;;;;10.52;8.30;;;;;;;17.20;75.99;101650.22;5049324;28;20041;-72
2022/07/19 04:48:13;;;;;;;14.00;8.40;;;;;;;17.25;75.88;101645.19;5044285;28;20491;-68
2022/07/19 04:50:40;;;;;;;14.70;9.25;;;;;;;17.30;75.67;101645.69;5029705;28;20034;-67
2022/07/19 04:53:06;;;;;;;13.98;9.40;;;;;;;17.35;75.80;101643.38;5029668;28;20123;-67
2022/07/19 04:55:32;;;;;;;14.60;9.00;;;;;;;17.40;75.70;101652.09;5029373;28;20045;-67
2022/07/19 04:57:57;;;;;;;12.75;10.35;;;;;;;17.45;76.45;101651.69;5033207;28;20047;-68
2022/07/19 05:00:23;;;;;;;13.85;10.65;;;;;;;17.45;77.50;101646.19;5047997;28;20063;-67
2022/07/19 05:02:48;;;;;;;21.58;10.70;;;;;;;17.45;78.49;101649.81;5049439;28;20047;-67
2022/07/19 05:05:14;;;;;;;16.90;10.18;;;;;;;17.51;77.90;101646.50;5046322;28;20116;-68
2022/07/19 05:07:40;;;;;;;17.83;9.50;;;;;;;17.57;77.48;101642.34;5041427;28;20087;-68
2022/07/19 05:10:06;;;;;;;13.30;8.70;;;;;;;17.67;76.91;101636.88;5048025;28;20017;-67
2022/07/19 05:12:32;;;;;;;19.13;10.20;;;;;;;17.76;77.16;101634.19;5038613;28;20561;-66
2022/07/19 05:14:58;;;;;;;18.20;13.75;;;;;;;17.84;75.95;101639.88;5045728;28;20094;-67
2022/07/19 05:17:24;;;;;;;20.85;13.95;;;;;;;17.91;76.05;101639.34;5048468;28;20025;-67
2022/07/19 05:19:49;;;;;;;20.13;14.25;;;;;;;17.97;76.52;101638.78;5044119;28;20041;-66
2022/07/19 05:22:15;;;;;;;23.20;15.82;;;;;;;17.99;75.45;101637.59;5041094;28;20113;-67
2022/07/19 05:24:40;;;;;;;20.20;15.25;;;;;;;18.05;75.61;101639.81;5049033;28;20139;-67
2022/07/19 05:27:05;;;;;;;20.13;15.45;;;;;;;18.12;75.73;101642.88;5047649;28;20071;-67
2022/07/19 05:29:31;;;;;;;21.83;17.25;;;;;;;18.13;76.73;101641.00;5042455;28;20040;-68
2022/07/19 05:31:56;;;;;;;22.50;17.83;;;;;;;18.22;76.10;101646.53;5048769;28;20033;-66
2022/07/19 05:34:21;;;;;;;21.00;16.92;;;;;;;18.33;74.88;101643.66;5047911;28;20043;-67
2022/07/19 05:36:47;;;;;;;21.48;16.75;;;;;;;18.42;73.99;101646.56;5029380;28;20088;-66
2022/07/19 05:39:12;;;;;;;26.80;16.92;;;;;;;18.51;74.79;101640.19;5029160;28;20044;-66
2022/07/19 05:41:38;;;;;;;31.90;18.33;;;;;;;18.57;74.73;101650.66;5043305;28;20111;-67
2022/07/19 05:44:03;;;;;;;26.92;17.65;;;;;;;18.67;74.02;101648.78;5039856;28;20041;-67
2022/07/19 05:46:28;;;;;;;25.85;18.92;;;;;;;18.73;75.09;101650.13;5048361;28;20021;-66
2022/07/19 05:48:54;;;;;;;20.85;18.20;;;;;;;18.81;75.21;101653.03;5048619;28;20048;-68
2022/07/19 05:51:19;;;;;;;24.05;15.98;;;;;;;18.88;74.69;101653.31;5047637;28;20021;-69
2022/07/19 05:53:45;;;;;;;24.95;15.02;;;;;;;18.98;75.01;101657.81;5039112;28;20041;-67
2022/07/19 05:56:10;;;;;;;20.42;16.30;;;;;;;19.06;74.84;101659.81;5028766;28;20048;-67
2022/07/19 05:58:36;;;;;;;22.27;15.73;;;;;;;19.13;75.40;101651.84;5034492;28;20059;-67
2022/07/19 06:01:18;;;;;;;22.90;17.08;;;;;;;19.21;74.84;101655.63;5044867;28;20157;-69
2022/07/19 06:03:48;;;;;;;21.30;15.90;;;;;;;19.32;73.39;101646.28;5040351;28;20124;-67
2022/07/19 06:06:14;;;;;;;23.17;16.23;;;;;;;19.42;73.45;101651.78;5041806;28;20086;-67
2022/07/19 06:08:40;;;;;;;26.60;19.40;;;;;;;19.50;73.40;101649.16;5047633;28;20031;-67
2022/07/19 06:11:06;;;;;;;27.65;22.20;;;;;;;19.57;71.97;101653.06;5048050;28;20025;-66
2022/07/19 06:13:31;;;;;;;25.95;22.45;;;;;;;19.63;72.59;101660.75;5038950;28;20484;-66
2022/07/19 06:15:56;;;;;;;29.42;24.92;;;;;;;19.69;71.88;101654.66;5026910;28;20037;-67
2022/07/19 06:18:22;;;;;;;29.80;26.13;;;;;;;19.75;71.70;101648.50;5042787;28;20053;-67
2022/07/19 06:20:47;;;;;;;28.13;24.80;;;;;;;19.83;70.45;101654.16;5051851;28;20051;-71
2022/07/19 06:23:13;;;;;;;27.85;24.55;;;;;;;19.92;70.75;101654.28;5040873;28;20029;-67
2022/07/19 06:25:38;;;;;;;31.27;27.98;;;;;;;19.98;70.12;101656.41;5046771;28;20066;-66
2022/07/19 06:28:04;;;;;;;29.27;26.35;;;;;;;20.06;70.91;101651.00;5039035;28;20032;-67
2022/07/19 06:30:29;;;;;;;32.45;27.00;;;;;;;20.11;70.75;101655.03;5044399;28;20033;-68
2022/07/19 06:32:55;;;;;;;29.88;26.55;;;;;;;20.20;70.08;101658.78;5044745;28;20033;-67
2022/07/19 06:35:20;;;;;;;34.72;25.88;;;;;;;20.30;69.58;101654.06;5048337;28;20140;-68
2022/07/19 06:37:45;;;;;;;40.17;25.98;;;;;;;20.44;69.00;101657.31;5050714;28;20071;-66
2022/07/19 06:40:11;;;;;;;36.63;26.00;;;;;;;20.51;68.91;101651.03;5043767;28;20041;-67
2022/07/19 06:42:37;;;;;;;32.60;25.67;;;;;;;20.64;69.06;101645.13;5022672;28;20560;-68
2022/07/19 06:45:03;;;;;;;21.73;19.42;;;;;;;20.75;69.00;101644.91;5047046;28;20412;-67
2022/07/19 06:47:29;;;;;;;30.83;24.35;;;;;;;20.85;69.01;101651.22;5049038;28;20484;-66
2022/07/19 06:49:54;;;;;;;29.05;23.58;;;;;;;20.93;69.54;101653.19;5044590;28;20033;-67
2022/07/19 06:52:19;;;;;;;32.60;23.13;;;;;;;21.01;68.78;101647.72;5043209;28;20020;-67
2022/07/19 06:54:45;;;;;;;26.58;21.05;;;;;;;21.09;66.97;101644.16;5046227;28;20025;-67
2022/07/19 06:57:11;;;;;;;31.05;21.80;;;;;;;21.18;68.20;101647.88;5026310;28;20029;-67
2022/07/19 06:59:36;;;;;;;23.25;18.73;;;;;;;21.28;65.98;101649.50;5043467;28;20029;-67
2022/07/19 07:02:03;;;;;;;27.10;19.00;;;;;;;21.39;66.12;101645.63;5049966;28;20033;-67
2022/07/19 07:04:29;;;;;;;26.83;19.45;;;;;;;21.48;67.36;101646.56;5043143;28;20040;-68
2022/07/19 07:06:55;;;;;;;31.85;18.75;;;;;;;21.56;66.74;101644.72;5037634;28;20069;-67
2022/07/19 07:09:20;;;;;;;26.15;17.25;;;;;;;21.67;65.59;101651.88;5041857;28;20037;-68
2022/07/19 07:11:45;;;;;;;29.67;16.05;;;;;;;21.76;65.15;101653.66;5031283;28;20056;-67
2022/07/19 07:14:11;;;;;;;33.83;15.65;;;;;;;21.88;64.27;101640.41;5047895;28;20090;-68
2022/07/19 07:16:36;;;;;;;36.45;15.05;;;;;;;21.97;64.35;101647.72;5051392;28;20041;-67
2022/07/19 07:19:02;;;;;;;33.85;15.10;;;;;;;22.08;65.34;101639.09;5051535;28;20037;-68
2022/07/19 07:21:27;;;;;;;30.55;14.13;;;;;;;22.20;65.09;101642.47;5031303;28;20118;-67
2022/07/19 07:23:53;;;;;;;24.40;12.15;;;;;;;22.42;64.90;101639.06;5046040;28;20025;-66
2022/07/19 07:26:18;;;;;;;22.63;11.27;;;;;;;22.60;63.44;101633.38;5037752;28;20353;-66
2022/07/19 07:28:43;;;;;;;22.95;10.35;;;;;;;22.91;63.17;101635.56;5037978;28;20073;-66
2022/07/19 07:31:09;;;;;;;19.48;11.77;;;;;;;23.09;62.60;101633.47;5049739;28;20028;-67
2022/07/19 07:33:34;;;;;;;15.57;10.27;;;;;;;23.24;61.82;101630.84;5049337;28;20032;-67
2022/07/19 07:35:59;;;;;;;20.67;10.45;;;;;;;23.39;62.01;101636.56;5039602;28;20080;-67
2022/07/19 07:38:25;;;;;;;38.97;11.30;;;;;;;23.53;61.43;101634.97;5044323;28;20036;-66
2022/07/19 07:40:50;;;;;;;47.28;10.27;;;;;;;23.62;61.08;101640.34;5038104;28;20051;-67
2022/07/19 07:43:15;;;;;;;23.88;8.70;;;;;;;23.70;61.29;101633.94;5036824;28;20122;-66
2022/07/19 07:45:42;;;;;;;37.17;9.77;;;;;;;23.79;60.47;101620.88;5034596;28;20029;-65
2022/07/19 07:48:07;;;;;;;25.85;8.30;;;;;;;23.90;60.17;101623.25;5029008;28;20857;-67
2022/07/19 07:50:32;;;;;;;25.13;7.95;;;;;;;24.00;59.93;101631.38;5028872;28;20124;-67
2022/07/19 07:52:58;;;;;;;18.42;8.05;;;;;;;24.06;61.25;101623.22;5030325;28;20493;-67
2022/07/19 07:55:23;;;;;;;13.57;7.57;;;;;;;24.18;60.02;101620.88;5029773;28;20033;-68
2022/07/19 07:57:48;;;;;;;15.27;6.50;;;;;;;24.34;58.80;101620.81;5020747;28;20041;-67
2022/07/19 08:00:14;;;;;;;18.38;6.20;;;;;;;24.42;57.64;101618.00;5029400;28;20041;-66
2022/07/19 08:02:42;;;;;;;13.23;6.63;;;;;;;24.60;59.04;101616.84;5032210;28;20036;-67
2022/07/19 08:05:09;;;;;;;17.65;6.53;;;;;;;24.75;57.78;101611.34;5029159;28;20128;-66
2022/07/19 08:07:34;;;;;;;8.75;5.53;;;;;;;25.05;63.57;101613.19;5029242;28;20029;-67
2022/07/19 08:10:01;;;;;;;17.17;5.78;;;;;;;25.29;56.76;101605.69;5032791;28;20383;-66
2022/07/19 08:12:27;;;;;;;14.35;5.38;;;;;;;25.53;56.49;101610.13;5055883;28;20037;-67
2022/07/19 08:14:52;;;;;;;9.63;4.95;;;;;;;26.00;51.10;101609.78;5033310;28;20495;-66
2022/07/19 08:17:17;;;;;;;11.20;5.20;;;;;;;26.80;52.72;101608.81;5039655;28;20103;-70
2022/07/19 08:19:43;;;;;;;12.73;4.70;;;;;;;27.64;54.02;101599.66;5044292;28;20429;-66
2022/07/19 08:22:08;;;;;;;11.20;5.00;;;;;;;28.41;49.25;101607.84;5037442;28;20033;-67
2022/07/19 08:24:33;;;;;;;16.85;4.80;;;;;;;29.12;45.89;101606.50;5029082;28;20049;-66
2022/07/19 08:26:59;;;;;;;13.52;5.13;;;;;;;29.71;44.67;101600.00;5039315;28;20104;-68
2022/07/19 08:29:24;;;;;;;6.65;3.97;;;;;;;30.12;44.76;101602.44;5042577;28;20060;-66
2022/07/19 08:31:50;;;;;;;15.48;4.60;;;;;;;30.52;41.05;101607.91;5043199;28;20048;-69
2022/07/19 08:34:15;;;;;;;9.18;4.22;;;;;;;30.90;39.48;101599.47;5043755;28;20052;-67
2022/07/19 08:36:40;;;;;;;16.83;4.95;;;;;;;31.40;38.00;101598.66;5036253;28;20077;-66
2022/07/19 08:39:06;;;;;;;10.57;4.03;;;;;;;31.85;37.96;101602.13;5036681;28;20059;-66
2022/07/19 08:41:34;;;;;;;7.57;4.05;;;;;;;32.10;36.03;101593.56;5041643;28;20480;-71
2022/07/19 08:44:02;;;;;;;9.90;3.90;;;;;;;32.50;40.50;101595.88;5037301;28;20049;-68
2022/07/19 08:46:28;;;;;;;15.57;4.47;;;;;;;32.75;39.03;101593.78;5039267;28;20096;-66
2022/07/19 08:48:54;;;;;;;12.98;4.40;;;;;;;33.08;36.56;101589.59;5037600;28;20064;-66
2022/07/19 08:51:21;;;;;;;7.65;4.25;;;;;;;33.30;37.72;101592.69;5048924;28;20484;-66
2022/07/19 08:53:48;;;;;;;8.27;4.18;;;;;;;33.56;38.38;101591.34;5047608;28;20388;-66
2022/07/19 08:58:58;;;;;;;17.80;4.22;;;;;;;34.06;37.82;101593.66;5037444;28;20048;-66
2022/07/19 09:01:23;;;;;;;9.68;4.93;;;;;;;34.22;38.17;101587.22;5033473;28;20017;-67
2022/07/19 09:04:08;;;;;;;11.23;4.10;;;;;;;34.38;39.57;101587.53;5038546;28;20121;-67
2022/07/19 09:06:54;;;;;;;24.75;5.22;;;;;;;34.63;39.36;101590.03;5037132;28;20044;-66
2022/07/19 09:09:27;;;;;;;14.65;5.00;;;;;;;34.76;34.59;101586.91;5048733;28;20059;-66
2022/07/19 09:11:54;;;;;;;10.15;4.93;;;;;;;34.78;33.87;101582.69;5033339;28;20033;-66
2022/07/19 09:14:37;;;;;;;13.18;4.80;;;;;;;34.82;33.46;101585.00;5039284;28;20135;-66
2022/07/19 09:17:19;;;;;;;17.20;5.28;;;;;;;35.11;35.86;101580.19;5028898;28;20139;-67
2022/07/19 09:19:46;;;;;;;11.38;5.10;;;;;;;35.17;34.87;101574.38;5028987;28;20060;-66
2022/07/19 09:22:18;;;;;;;13.05;4.97;;;;;;;35.27;37.57;101583.00;5028047;28;20044;-66
2022/07/19 09:24:46;;;;;;;9.38;4.63;;;;;;;35.24;31.80;101572.19;5036424;28;20516;-66
2022/07/19 09:27:22;;;;;;;9.18;4.18;;;;;;;35.48;36.20;101581.38;5028025;28;20041;-65
2022/07/19 09:29:53;;;;;;;9.55;4.43;;;;;;;35.52;32.37;101571.25;5028016;28;20256;-67
2022/07/19 09:32:20;;;;;;;14.82;4.82;;;;;;;35.53;33.96;101572.09;5031106;28;20098;-66
2022/07/19 09:34:50;;;;;;;14.32;4.35;;;;;;;35.72;35.64;101576.38;5028797;28;20033;-66
2022/07/19 09:37:21;;;;;;;11.13;4.35;;;;;;;35.83;32.14;101576.53;5029064;28;20513;-65
2022/07/19 09:39:52;;;;;;;9.45;4.05;;;;;;;35.85;33.12;101572.28;5028438;28;20099;-67
2022/07/19 09:42:22;;;;;;;9.35;4.20;;;;;;;36.18;33.08;101577.00;5033109;28;20041;-70
2022/07/19 09:45:04;;;;;;;9.40;4.65;;;;;;;36.56;34.38;101572.38;5029044;28;20041;-70
2022/07/19 09:47:31;;;;;;;11.63;4.32;;;;;;;36.83;31.88;101563.84;5030361;28;20227;-66
2022/07/19 09:49:57;;;;;;;11.18;4.45;;;;;;;37.04;30.50;101567.78;5040718;28;20068;-67
2022/07/19 09:52:23;;;;;;;8.65;4.38;;;;;;;37.24;32.59;101569.91;5044349;28;20500;-67
2022/07/19 09:54:51;;;;;;;9.88;4.38;;;;;;;37.54;31.97;101563.63;5040969;28;20045;-66
2022/07/19 09:57:22;;;;;;;14.52;4.55;;;;;;;37.45;31.56;101566.13;5034214;28;20109;-67
2022/07/19 09:59:50;;;;;;;10.70;4.10;;;;;;;37.85;30.01;101567.53;5032840;28;20091;-70
2022/07/19 10:02:18;;;;;;;11.60;3.92;;;;;;;37.95;28.90;101566.72;5039390;28;20528;-67
2022/07/19 10:04:44;;;;;;;7.93;4.07;;;;;;;37.82;24.46;101565.22;5037389;28;20052;-66
2022/07/19 10:07:11;;;;;;;19.13;4.65;;;;;;;37.98;30.03;101564.19;5033642;28;20373;-66
2022/07/19 10:09:37;;;;;;;16.33;4.65;;;;;;;37.95;27.03;101561.88;5036757;28;20021;-67
2022/07/19 10:12:02;;;;;;;9.07;4.30;;;;;;;37.86;28.31;101557.00;5031018;28;20531;-66
2022/07/19 10:14:28;;;;;;;237.73;18.52;;;;;;;38.15;29.38;101558.28;5040963;28;20408;-66
2022/07/19 10:16:53;;;;;;;25.63;5.40;;;;;;;38.37;27.38;101554.38;5040025;28;20037;-66
2022/07/19 10:19:28;;;;;;;12.70;4.23;;;;;;;38.20;27.50;101554.59;5040669;28;20166;-67
2022/07/19 10:21:54;;;;;;;10.05;3.88;;;;;;;38.42;26.54;101555.25;5047435;28;20303;-69
2022/07/19 10:24:57;;;;;;;13.55;4.05;;;;;;;38.62;26.53;101547.91;5040405;28;20045;-66
2022/07/19 10:27:25;;;;;;;10.82;3.80;;;;;;;38.71;22.58;101549.06;5043172;28;20036;-68
2022/07/19 10:29:51;;;;;;;14.68;4.05;;;;;;;38.79;27.55;101546.53;5043488;28;20043;-67
2022/07/19 10:32:16;;;;;;;6.80;3.50;;;;;;;39.03;27.01;101549.69;5041131;28;20411;-67
2022/07/19 10:34:46;;;;;;;5.10;2.80;;;;;;;39.06;24.24;101539.69;5039545;28;20073;-66
2022/07/19 10:37:12;;;;;;;7.72;3.35;;;;;;;39.13;22.83;101536.59;5043468;28;20480;-67
2022/07/19 10:39:39;;;;;;;7.50;3.45;;;;;;;39.01;22.17;101534.00;5043559;28;20049;-66
2022/07/19 10:42:07;;;;;;;6.43;3.40;;;;;;;39.00;22.59;101532.31;5041167;28;20590;-66
2022/07/19 10:44:33;;;;;;;7.22;2.92;;;;;;;39.06;20.43;101528.31;5041706;28;20067;-65
2022/07/19 10:46:58;;;;;;;4.63;2.97;;;;;;;39.14;21.21;101529.75;5042014;28;20664;-67
2022/07/19 10:49:42;;;;;;;9.45;3.40;;;;;;;39.21;21.88;101530.31;5040488;28;20066;-65
2022/07/19 10:52:26;;;;;;;6.10;3.45;;;;;;;39.48;22.72;101525.16;5039536;28;20091;-65
2022/07/19 10:55:28;;;;;;;9.32;3.30;;;;;;;39.70;22.27;101533.38;5038211;28;20032;-66
2022/07/19 10:58:06;;;;;;;7.63;3.58;;;;;;;39.84;22.58;101522.22;5032646;28;20033;-66
2022/07/19 11:00:40;;;;;;;9.27;3.25;;;;;;;40.23;24.96;101525.16;5039227;28;20059;-67
2022/07/19 11:03:21;;;;;;;9.02;3.03;;;;;;;40.21;20.46;101524.63;5034479;28;20406;-67
2022/07/19 11:05:52;;;;;;;;;;;;;;;40.40;21.90;101518.25;5042337;28;20472;-67
2022/07/19 11:08:18;;;;;;;8.02;3.08;;;;;;;40.29;19.85;101508.88;5043692;28;19920;-70
2022/07/19 11:10:45;;;;;;;8.10;2.47;;;;;;;40.34;20.94;101513.69;5041607;28;20500;-66
2022/07/19 11:13:15;;;;;;;7.32;3.05;;;;;;;40.43;20.55;101507.09;5037204;28;20453;-67
2022/07/19 11:15:41;;;;;;;5.68;3.00;;;;;;;40.47;20.21;101501.63;5042003;28;20052;-67
2022/07/19 11:18:07;;;;;;;7.13;3.00;;;;;;;40.45;19.34;101499.09;5039972;28;20025;-66
2022/07/19 11:20:34;;;;;;;8.23;3.35;;;;;;;40.62;20.34;101489.28;5037343;28;20037;-67